createdAt,value
2019-01-10T00:01:16.107Z,99736.69
2019-01-10T00:04:18.138Z,99728.29
2019-01-10T00:07:20.022Z,99732.42
2019-01-10T00:10:21.982Z,99735.72
2019-01-10T00:13:23.944Z,99735.02
2019-01-10T00:16:26.365Z,99739.59
2019-01-10T00:19:28.303Z,99740.36
2019-01-10T00:22:30.291Z,99747.84
2019-01-10T00:25:33.296Z,99743.46
2019-01-10T00:28:36.259Z,99737.74
2019-01-10T00:31:39.305Z,99746.77
2019-01-10T00:34:44.318Z,99753.28
2019-01-10T00:37:47.683Z,99751.44
2019-01-10T00:40:50.973Z,99757.55
2019-01-10T00:43:54.979Z,99761.12
2019-01-10T00:46:58.326Z,99761.83
2019-01-10T00:50:01.623Z,99766.02
2019-01-10T00:53:04.499Z,99772.22
2019-01-10T00:56:07.981Z,99777.50
2019-01-10T00:59:13.048Z,99779.34
2019-01-10T01:02:15.623Z,99789.61
2019-01-10T01:05:17.921Z,99789.06
2019-01-10T01:08:19.830Z,99796.95
2019-01-10T01:11:21.810Z,99803.40
2019-01-10T01:14:23.714Z,99805.04
2019-01-10T01:17:25.869Z,99813.13
2019-01-10T01:20:27.953Z,99807.02
2019-01-10T01:23:29.947Z,99813.88
2019-01-10T01:26:31.869Z,99821.20
2019-01-10T01:29:33.820Z,99819.92
2019-01-10T01:32:35.745Z,99825.84
2019-01-10T01:35:38.158Z,99824.28
2019-01-10T01:38:40.118Z,99831.16
2019-01-10T01:41:42.108Z,99835.03
2019-01-10T01:44:44.078Z,99838.76
2019-01-10T01:47:46.222Z,99849.08
2019-01-10T01:50:48.131Z,99853.98
2019-01-10T01:53:50.083Z,99847.27
2019-01-10T01:56:53.464Z,99844.48
2019-01-10T01:59:55.609Z,99851.47
2019-01-10T02:02:57.544Z,99860.37
2019-01-10T02:05:59.506Z,99865.39
2019-01-10T02:09:01.430Z,99866.55
2019-01-10T02:12:04.577Z,99868.98
2019-01-10T02:15:06.621Z,99866.91
2019-01-10T02:18:08.669Z,99871.92
2019-01-10T02:21:10.633Z,99872.05
2019-01-10T02:24:12.566Z,99876.81
2019-01-10T02:27:14.567Z,99877.63
2019-01-10T02:30:21.950Z,99876.11
2019-01-10T02:33:24.986Z,99882.36
2019-01-10T02:36:27.022Z,99892.08
2019-01-10T02:39:29.035Z,99892.48
2019-01-10T02:42:30.974Z,99895.05
2019-01-10T02:45:32.834Z,99899.25
2019-01-10T02:48:34.783Z,99900.29
2019-01-10T02:51:36.801Z,99902.87
2019-01-10T02:54:38.870Z,99904.13
2019-01-10T02:57:40.946Z,99908.28
2019-01-10T03:00:42.923Z,99906.75
2019-01-10T03:03:44.844Z,99908.78
2019-01-10T03:06:46.781Z,99915.54
2019-01-10T03:09:48.709Z,99922.61
2019-01-10T03:12:52.033Z,99917.18
2019-01-10T03:15:53.948Z,99916.00
2019-01-10T03:18:56.145Z,99922.92
2019-01-10T03:21:58.127Z,99925.20
2019-01-10T03:25:00.192Z,99928.77
2019-01-10T03:28:02.143Z,99925.59
2019-01-10T03:31:04.782Z,99924.74
2019-01-10T03:34:06.721Z,99932.81
2019-01-10T03:37:08.646Z,99931.67
2019-01-10T03:40:15.830Z,99929.95
2019-01-10T03:43:17.814Z,99936.20
2019-01-10T03:46:19.808Z,99944.97
2019-01-10T03:49:21.806Z,99942.69
2019-01-10T03:52:23.755Z,99939.16
2019-01-10T03:55:25.795Z,99944.97
2019-01-10T03:58:27.950Z,99946.44
2019-01-10T04:01:29.954Z,99950.33
2019-01-10T04:04:31.881Z,99953.41
2019-01-10T04:07:33.852Z,99957.00
2019-01-10T04:10:35.833Z,99964.06
2019-01-10T04:13:37.895Z,99962.72
2019-01-10T04:16:39.785Z,99967.42
2019-01-10T04:19:41.732Z,99971.86
2019-01-10T04:22:43.748Z,99979.85
2019-01-10T04:25:45.773Z,99979.56
2019-01-10T04:28:47.833Z,99972.00
2019-01-10T04:31:49.904Z,99987.92
2019-01-10T04:34:51.795Z,99987.28
2019-01-10T04:37:53.762Z,99989.25
2019-01-10T04:40:55.638Z,99993.56
2019-01-10T04:44:06.692Z,99997.44
2019-01-10T04:47:02.139Z,99995.06
2019-01-10T04:50:07.595Z,100001.12
2019-01-10T04:53:09.551Z,100002.02
2019-01-10T04:56:11.532Z,100001.62
2019-01-10T04:59:13.717Z,100008.31
2019-01-10T05:02:18.450Z,100008.59
2019-01-10T05:05:19.707Z,100009.23
2019-01-10T05:08:21.709Z,100014.30
2019-01-10T05:11:23.634Z,100022.27
2019-01-10T05:14:25.706Z,100023.98
2019-01-10T05:17:30.172Z,100033.19
2019-01-10T05:20:31.642Z,100033.04
2019-01-10T05:23:33.631Z,100040.20
2019-01-10T05:26:35.650Z,100040.22
2019-01-10T05:29:37.636Z,100045.44
2019-01-10T05:32:39.601Z,100046.92
2019-01-10T05:35:41.547Z,100047.83
2019-01-10T05:38:43.494Z,100048.19
2019-01-10T05:41:45.437Z,100056.49
2019-01-10T05:44:47.931Z,100052.34
2019-01-10T05:47:49.919Z,100057.48
2019-01-10T05:50:51.858Z,100069.82
2019-01-10T05:53:53.755Z,100074.34
2019-01-10T05:56:55.719Z,100072.86
2019-01-10T05:59:57.894Z,100081.27
2019-01-10T06:02:59.925Z,100087.39
2019-01-10T06:06:01.914Z,100084.00
2019-01-10T06:09:07.224Z,100088.66
2019-01-10T06:12:09.132Z,100097.99
2019-01-10T06:15:13.628Z,100095.59
2019-01-10T06:18:16.867Z,100096.95
2019-01-10T06:21:18.830Z,100103.12
2019-01-10T06:24:20.812Z,100107.59
2019-01-10T06:27:22.806Z,100116.02
2019-01-10T06:30:24.810Z,100124.38
2019-01-10T06:33:26.882Z,100120.44
2019-01-10T06:36:28.832Z,100129.95
2019-01-10T06:39:31.066Z,100130.52
2019-01-10T06:42:33.033Z,100143.34
2019-01-10T06:45:35.419Z,100147.05
2019-01-10T06:48:37.440Z,100147.66
2019-01-10T06:51:39.629Z,100157.97
2019-01-10T06:54:41.582Z,100159.80
2019-01-10T06:57:43.563Z,100158.64
2019-01-10T07:00:45.624Z,100164.68
2019-01-10T07:03:47.622Z,100170.55
2019-01-10T07:06:49.600Z,100173.19
2019-01-10T07:09:51.621Z,100175.77
2019-01-10T07:12:53.578Z,100177.31
2019-01-10T07:15:55.564Z,100181.17
2019-01-10T07:18:57.534Z,100187.50
2019-01-10T07:21:59.434Z,100189.69
2019-01-10T07:25:01.438Z,100187.20
2019-01-10T07:28:07.549Z,100194.56
2019-01-10T07:31:11.322Z,100193.64
2019-01-10T07:34:13.351Z,100193.42
2019-01-10T07:37:15.284Z,100188.49
2019-01-10T07:40:17.244Z,100197.68
2019-01-10T07:43:20.601Z,100201.87
2019-01-10T07:46:23.379Z,100199.75
2019-01-10T07:49:25.309Z,100201.86
2019-01-10T07:52:27.303Z,100199.25
2019-01-10T07:55:29.329Z,100206.72
2019-01-10T07:58:31.382Z,100206.78
2019-01-10T08:01:33.433Z,100205.84
2019-01-10T08:04:36.598Z,100213.78
2019-01-10T08:07:38.774Z,100215.70
2019-01-10T08:10:40.781Z,100227.69
2019-01-10T08:13:43.922Z,100224.42
2019-01-10T08:16:45.909Z,100227.02
2019-01-10T08:19:47.854Z,100230.27
2019-01-10T08:22:49.807Z,100231.18
2019-01-10T08:25:51.764Z,100234.13
2019-01-10T08:28:53.717Z,100241.38
2019-01-10T08:31:55.647Z,100241.98
2019-01-10T08:34:57.616Z,100242.42
2019-01-10T08:37:59.569Z,100246.33
2019-01-10T08:41:01.584Z,100251.02
2019-01-10T08:44:03.607Z,100255.09
2019-01-10T08:47:06.572Z,100258.03
2019-01-10T08:50:12.140Z,100249.52
2019-01-10T08:53:14.326Z,100263.52
2019-01-10T08:56:16.262Z,100263.77
2019-01-10T08:59:18.225Z,100265.62
2019-01-10T09:02:20.344Z,100270.14
2019-01-10T09:05:22.378Z,100267.22
2019-01-10T09:08:24.318Z,100276.42
2019-01-10T09:11:26.316Z,100284.87
2019-01-10T09:14:28.338Z,100276.06
2019-01-10T09:17:30.282Z,100286.30
2019-01-10T09:20:32.196Z,100287.24
2019-01-10T09:23:34.163Z,100286.16
2019-01-10T09:26:37.571Z,100286.62
2019-01-10T09:29:40.067Z,100291.47
2019-01-10T09:32:42.013Z,100296.73
2019-01-10T09:35:43.956Z,100294.33
2019-01-10T09:38:45.867Z,100293.10
2019-01-10T09:41:47.867Z,100301.75
2019-01-10T09:44:49.787Z,100303.76
2019-01-10T09:47:53.349Z,100311.59
2019-01-10T09:50:55.515Z,100315.89
2019-01-10T09:53:57.906Z,100316.74
2019-01-10T09:56:59.774Z,100319.97
2019-01-10T10:00:02.829Z,100320.11
2019-01-10T10:03:04.862Z,100320.41
2019-01-10T10:06:07.842Z,100320.86
2019-01-10T10:09:10.151Z,100325.67
2019-01-10T10:12:12.071Z,100329.53
2019-01-10T10:15:16.080Z,100327.20
2019-01-10T10:18:18.120Z,100326.15
2019-01-10T10:21:20.102Z,100327.32
2019-01-10T10:24:22.039Z,100332.31
2019-01-10T10:27:23.953Z,100334.19
2019-01-10T10:30:25.922Z,100329.38
2019-01-10T10:33:27.897Z,100334.50
2019-01-10T10:36:30.093Z,100339.88
2019-01-10T10:39:32.030Z,100348.34
2019-01-10T10:42:34.289Z,100341.68
2019-01-10T10:45:36.211Z,100347.72
2019-01-10T10:48:38.243Z,100351.72
2019-01-10T10:51:40.136Z,100343.20
2019-01-10T10:54:42.250Z,100348.79
2019-01-10T10:57:44.152Z,100348.50
2019-01-10T11:00:46.358Z,100349.23
2019-01-10T11:03:48.393Z,100349.11
2019-01-10T11:06:50.366Z,100356.27
2019-01-10T11:09:52.297Z,100348.66
2019-01-10T11:12:54.347Z,100356.19
2019-01-10T11:15:56.261Z,100354.14
2019-01-10T11:18:58.295Z,100355.13
2019-01-10T11:22:00.228Z,100354.75
2019-01-10T11:25:02.297Z,100350.88
2019-01-10T11:28:05.155Z,100353.47
2019-01-10T11:31:07.174Z,100348.10
2019-01-10T11:34:09.145Z,100350.53
2019-01-10T11:37:11.039Z,100347.91
2019-01-10T11:40:15.911Z,100350.02
2019-01-10T11:43:18.113Z,100351.94
2019-01-10T11:46:20.160Z,100348.39
2019-01-10T11:49:22.464Z,100351.89
2019-01-10T11:52:24.381Z,100352.95
2019-01-10T11:55:26.327Z,100347.57
2019-01-10T11:58:28.261Z,100353.08
2019-01-10T12:01:30.262Z,100354.07
2019-01-10T12:04:32.271Z,100355.59
2019-01-10T12:07:34.192Z,100347.29
2019-01-10T12:10:36.087Z,100347.13
2019-01-10T12:13:38.041Z,100350.30
2019-01-10T12:16:39.957Z,100348.11
2019-01-10T12:19:41.945Z,100342.16
2019-01-10T12:22:44.169Z,100348.79
2019-01-10T12:25:46.110Z,100345.91
2019-01-10T12:28:48.018Z,100348.26
2019-01-10T12:31:49.967Z,100348.42
2019-01-10T12:34:51.892Z,100345.46
2019-01-10T12:37:53.866Z,100345.46
2019-01-10T12:40:55.816Z,100346.89
2019-01-10T12:43:57.790Z,100350.81
2019-01-10T12:46:59.871Z,100355.95
2019-01-10T12:50:01.958Z,100350.97
2019-01-10T12:53:03.875Z,100356.98
2019-01-10T12:56:05.972Z,100363.11
2019-01-10T12:59:07.844Z,100362.73
2019-01-10T13:02:09.777Z,100358.13
2019-01-10T13:05:12.535Z,100363.55
2019-01-10T13:08:14.688Z,100370.10
2019-01-10T13:11:16.557Z,100353.81
2019-01-10T13:14:19.295Z,100365.53
2019-01-10T13:17:21.192Z,100374.51
2019-01-10T13:20:23.278Z,100380.02
2019-01-10T13:23:25.177Z,100369.56
2019-01-10T13:26:27.114Z,100376.31
2019-01-10T13:29:29.026Z,100374.63
2019-01-10T13:32:31.008Z,100373.23
2019-01-10T13:35:32.977Z,100377.15
2019-01-10T13:38:34.987Z,100372.63
2019-01-10T13:41:36.875Z,100372.04
2019-01-10T13:44:38.826Z,100372.09
2019-01-10T13:47:41.022Z,100369.81
2019-01-10T13:50:43.297Z,100372.16
2019-01-10T13:53:45.233Z,100375.61
2019-01-10T13:56:47.226Z,100385.73
2019-01-10T13:59:49.157Z,100384.50
2019-01-10T14:02:51.583Z,100384.50
2019-01-10T14:05:53.678Z,100380.84
2019-01-10T14:08:55.855Z,100389.41
2019-01-10T14:11:57.856Z,100389.11
2019-01-10T14:14:59.876Z,100399.04
2019-01-10T14:18:01.779Z,100398.95
2019-01-10T14:21:03.816Z,100397.89
2019-01-10T14:24:05.725Z,100399.60
2019-01-10T14:27:07.791Z,100407.84
2019-01-10T14:30:16.465Z,100405.80
2019-01-10T14:33:18.712Z,100423.36
2019-01-10T14:36:20.660Z,100406.01
2019-01-10T14:39:22.701Z,100420.55
2019-01-10T14:42:24.665Z,100418.46
2019-01-10T14:45:26.636Z,100425.92
2019-01-10T14:48:28.538Z,100428.11
2019-01-10T14:51:30.718Z,100420.81
2019-01-10T14:54:32.669Z,100438.73
2019-01-10T14:57:34.755Z,100440.73
2019-01-10T15:00:36.874Z,100440.20
2019-01-10T15:03:38.895Z,100440.44
2019-01-10T15:06:40.965Z,100442.83
2019-01-10T15:09:43.091Z,100441.38
2019-01-10T15:12:45.798Z,100447.08
2019-01-10T15:15:47.768Z,100453.21
2019-01-10T15:18:49.705Z,100448.08
2019-01-10T15:21:52.248Z,100455.78
2019-01-10T15:24:54.155Z,100457.94
2019-01-10T15:27:56.161Z,100459.29
2019-01-10T15:30:58.154Z,100461.86
2019-01-10T15:34:00.110Z,100461.68
2019-01-10T15:37:02.065Z,100467.52
2019-01-10T15:40:13.765Z,100467.55
2019-01-10T15:43:15.758Z,100466.08
2019-01-10T15:46:17.909Z,100474.95
2019-01-10T15:49:19.894Z,100477.05
2019-01-10T15:52:22.354Z,100478.54
2019-01-10T15:55:26.194Z,100483.83
2019-01-10T15:58:28.182Z,100488.81
2019-01-10T16:01:30.133Z,100495.36
2019-01-10T16:04:32.112Z,100493.22
2019-01-10T16:07:34.300Z,100500.25
2019-01-10T16:10:36.351Z,100497.78
2019-01-10T16:13:38.351Z,100508.92
2019-01-10T16:16:40.390Z,100513.73
2019-01-10T16:19:42.311Z,100521.08
2019-01-10T16:22:44.897Z,100518.50
2019-01-10T16:25:46.959Z,100522.63
2019-01-10T16:28:49.097Z,100516.78
2019-01-10T16:31:51.197Z,100516.44
2019-01-10T16:34:53.162Z,100519.38
2019-01-10T16:37:55.364Z,100521.57
2019-01-10T16:40:57.476Z,100527.42
2019-01-10T16:43:59.409Z,100528.25
2019-01-10T16:47:01.358Z,100532.55
2019-01-10T16:50:06.793Z,100528.25
2019-01-10T16:53:08.937Z,100520.84
2019-01-10T16:56:10.981Z,100533.77
2019-01-10T16:59:12.951Z,100524.41
2019-01-10T17:02:14.983Z,100531.70
2019-01-10T17:05:17.395Z,100542.34
2019-01-10T17:08:19.447Z,100534.20
2019-01-10T17:11:21.468Z,100536.53
2019-01-10T17:14:23.426Z,100536.92
2019-01-10T17:17:25.402Z,100536.30
2019-01-10T17:20:27.404Z,100530.70
2019-01-10T17:23:29.478Z,100534.34
2019-01-10T17:26:31.427Z,100532.36
2019-01-10T17:29:33.956Z,100540.50
2019-01-10T17:32:35.881Z,100541.22
2019-01-10T17:35:38.460Z,100533.22
2019-01-10T17:38:40.437Z,100533.03
2019-01-10T17:41:42.423Z,100526.67
2019-01-10T17:44:44.348Z,100534.41
2019-01-10T17:47:46.304Z,100549.09
2019-01-10T17:50:48.282Z,100541.59
2019-01-10T17:53:51.469Z,100548.23
2019-01-10T17:56:53.347Z,100552.80
2019-01-10T17:59:55.348Z,100556.97
2019-01-10T18:02:57.474Z,100554.48
2019-01-10T18:05:59.431Z,100563.41
2019-01-10T18:09:03.633Z,100559.48
2019-01-10T18:12:06.723Z,100565.10
2019-01-10T18:15:11.278Z,100569.47
2019-01-10T18:18:13.280Z,100569.41
2019-01-10T18:21:15.298Z,100564.70
2019-01-10T18:24:17.291Z,100564.08
2019-01-10T18:27:19.294Z,100562.22
2019-01-10T18:30:22.978Z,100567.13
2019-01-10T18:33:25.213Z,100572.11
2019-01-10T18:36:27.227Z,100580.78
2019-01-10T18:39:30.704Z,100578.59
2019-01-10T18:42:32.748Z,100577.03
2019-01-10T18:45:34.678Z,100575.78
2019-01-10T18:48:39.853Z,100564.64
2019-01-10T18:51:40.508Z,100575.78
2019-01-10T18:54:42.668Z,100576.11
2019-01-10T18:57:47.708Z,100585.80
2019-01-10T19:00:49.673Z,100583.91
2019-01-10T19:03:52.186Z,100576.70
2019-01-10T19:06:54.235Z,100591.62
2019-01-10T19:09:57.682Z,100599.03
2019-01-10T19:12:59.645Z,100603.73
2019-01-10T19:16:01.585Z,100611.44
2019-01-10T19:19:03.727Z,100614.78
2019-01-10T19:22:05.675Z,100618.52
2019-01-10T19:25:09.406Z,100623.52
2019-01-10T19:28:11.762Z,100628.84
2019-01-10T19:31:14.368Z,100623.52
2019-01-10T19:34:16.434Z,100631.75
2019-01-10T19:37:18.462Z,100630.92
2019-01-10T19:40:21.320Z,100628.71
2019-01-10T19:43:25.453Z,100629.44
2019-01-10T19:50:37.147Z,100629.44
2019-01-10T19:53:39.129Z,100630.02
2019-01-10T19:56:42.407Z,100631.70
2019-01-10T19:59:44.570Z,100643.98
2019-01-10T20:02:48.103Z,100640.41
2019-01-10T20:05:50.833Z,100640.06
2019-01-10T20:08:53.372Z,100641.32
2019-01-10T20:11:56.006Z,100644.86
2019-01-10T20:14:58.399Z,100641.19
2019-01-10T20:18:04.262Z,100641.02
2019-01-10T20:21:07.475Z,100650.02
2019-01-10T20:24:13.092Z,100641.24
2019-01-10T20:27:15.434Z,100640.72
2019-01-10T20:30:17.725Z,100644.36
2019-01-10T20:33:19.710Z,100644.89
2019-01-10T20:36:22.017Z,100650.81
2019-01-10T20:39:24.701Z,100650.59
2019-01-10T20:42:26.730Z,100643.64
2019-01-10T20:45:28.687Z,100641.35
2019-01-10T20:48:32.571Z,100646.94
2019-01-10T20:51:34.612Z,100649.12
2019-01-10T20:54:37.126Z,100648.06
2019-01-10T20:57:39.073Z,100637.20
2019-01-10T21:00:41.321Z,100644.86
2019-01-10T21:03:43.714Z,100643.00
2019-01-10T21:06:45.653Z,100647.44
2019-01-10T21:09:48.839Z,100648.67
2019-01-10T21:12:52.309Z,100647.70
2019-01-10T21:15:54.946Z,100645.48
2019-01-10T21:18:56.854Z,100650.91
2019-01-10T21:21:58.793Z,100653.00
2019-01-10T21:25:01.984Z,100656.28
2019-01-10T21:28:03.963Z,100655.75
2019-01-10T21:31:06.083Z,100655.16
2019-01-10T21:34:08.359Z,100657.44
2019-01-10T21:37:10.383Z,100663.49
2019-01-10T21:40:18.494Z,100669.02
2019-01-10T21:43:20.479Z,100662.56
2019-01-10T21:46:22.453Z,100667.09
2019-01-10T21:49:24.357Z,100663.95
2019-01-10T21:52:26.316Z,100663.02
2019-01-10T21:55:28.218Z,100670.03
2019-01-10T21:58:30.629Z,100672.64
2019-01-10T22:01:34.022Z,100665.02
2019-01-10T22:04:36.241Z,100670.47
2019-01-10T22:07:38.179Z,100663.98
2019-01-10T22:10:40.129Z,100663.27
2019-01-10T22:13:42.215Z,100660.68
2019-01-10T22:16:44.203Z,100657.97
2019-01-10T22:19:46.118Z,100664.03
2019-01-10T22:22:48.179Z,100662.36
2019-01-10T22:25:50.166Z,100660.25
2019-01-10T22:28:52.700Z,100663.47
2019-01-10T22:31:54.645Z,100661.27
2019-01-10T22:34:56.617Z,100670.23
2019-01-10T22:37:58.572Z,100670.95
2019-01-10T22:41:00.545Z,100676.25
2019-01-10T22:44:02.818Z,100677.81
2019-01-10T22:47:04.752Z,100673.52
2019-01-10T22:50:10.234Z,100669.95
2019-01-10T22:53:12.177Z,100671.64
2019-01-10T22:56:14.110Z,100670.17
2019-01-10T22:59:16.122Z,100671.94
2019-01-10T23:02:18.645Z,100673.29
2019-01-10T23:05:20.649Z,100677.76
2019-01-10T23:08:23.454Z,100670.67
2019-01-10T23:11:25.625Z,100663.79
2019-01-10T23:14:27.756Z,100663.36
2019-01-10T23:17:33.216Z,100669.28
2019-01-10T23:20:35.209Z,100663.33
2019-01-10T23:23:37.219Z,100670.87
2019-01-10T23:26:39.155Z,100667.00
2019-01-10T23:29:41.173Z,100664.28
2019-01-10T23:32:43.077Z,100668.49
2019-01-10T23:35:46.772Z,100669.52
2019-01-10T23:39:09.958Z,100666.38
2019-01-10T23:42:12.316Z,100667.43
2019-01-10T23:45:14.423Z,100666.80
2019-01-10T23:48:16.482Z,100674.52
2019-01-10T23:51:18.467Z,100668.85
2019-01-10T23:54:20.500Z,100665.60
2019-01-10T23:57:22.461Z,100662.39
